sensor_id;sensor_type;location;lat;lon;timestamp;pressure;altitude;pressure_sealevel;temperature;humidity
788;BME280;16074;42.708;23.312;2023-02-02T00:01:41;139613.94;;;5.40;59.47
788;BME280;16074;42.708;23.312;2023-02-02T00:04:16;139606.75;;;5.37;59.72
788;BME280;16074;42.708;23.312;2023-02-02T00:06:44;139593.59;;;5.31;59.19
788;BME280;16074;42.708;23.312;2023-02-02T00:09:16;139563.59;;;5.19;59.16
788;BME280;16074;42.708;23.312;2023-02-02T00:11:46;139568.41;;;5.21;59.07
788;BME280;16074;42.708;23.312;2023-02-02T00:14:14;139570.78;;;5.22;58.95
788;BME280;16074;42.708;23.312;2023-02-02T00:16:44;139587.56;;;5.29;59.52
788;BME280;16074;42.708;23.312;2023-02-02T00:19:15;139592.38;;;5.31;59.23
788;BME280;16074;42.708;23.312;2023-02-02T00:21:44;139623.53;;;5.44;58.97
788;BME280;16074;42.708;23.312;2023-02-02T00:24:14;139651.06;;;5.55;58.29
788;BME280;16074;42.708;23.312;2023-02-02T00:26:46;139616.34;;;5.41;58.58
788;BME280;16074;42.708;23.312;2023-02-02T00:29:17;139607.97;;;5.37;58.37
788;BME280;16074;42.708;23.312;2023-02-02T00:31:46;139615.13;;;5.40;58.41
788;BME280;16074;42.708;23.312;2023-02-02T00:34:16;139629.50;;;5.46;58.23
788;BME280;16074;42.708;23.312;2023-02-02T00:36:46;139623.53;;;5.44;58.19
788;BME280;16074;42.708;23.312;2023-02-02T00:39:16;139647.50;;;5.54;58.13
788;BME280;16074;42.708;23.312;2023-02-02T00:41:45;139647.50;;;5.54;58.60
788;BME280;16074;42.708;23.312;2023-02-02T00:44:14;139643.88;;;5.52;58.73
788;BME280;16074;42.708;23.312;2023-02-02T00:47:00;139623.53;;;5.44;58.39
788;BME280;16074;42.708;23.312;2023-02-02T00:49:30;139579.22;;;5.25;59.16
788;BME280;16074;42.708;23.312;2023-02-02T00:51:58;139618.72;;;5.42;58.95
788;BME280;16074;42.708;23.312;2023-02-02T00:54:26;139600.78;;;5.34;59.30
788;BME280;16074;42.708;23.312;2023-02-02T00:56:55;139631.88;;;5.47;59.39
788;BME280;16074;42.708;23.312;2023-02-02T00:59:23;139600.78;;;5.34;59.74
788;BME280;16074;42.708;23.312;2023-02-02T01:01:51;139592.38;;;5.31;60.38
788;BME280;16074;42.708;23.312;2023-02-02T01:04:19;139486.97;;;4.87;62.01
788;BME280;16074;42.708;23.312;2023-02-02T01:06:49;139491.78;;;4.89;63.20
788;BME280;16074;42.708;23.312;2023-02-02T01:09:17;139480.97;;;4.84;63.56
788;BME280;16074;42.708;23.312;2023-02-02T01:11:46;139490.56;;;4.88;64.04
788;BME280;16074;42.708;23.312;2023-02-02T01:14:15;139495.34;;;4.90;64.49
788;BME280;16074;42.708;23.312;2023-02-02T01:16:43;139507.31;;;4.95;64.78
788;BME280;16074;42.708;23.312;2023-02-02T01:19:12;139513.34;;;4.98;64.93
788;BME280;16074;42.708;23.312;2023-02-02T01:21:40;139507.31;;;4.95;65.51
788;BME280;16074;42.708;23.312;2023-02-02T01:24:11;139526.50;;;5.03;65.62
788;BME280;16074;42.708;23.312;2023-02-02T01:26:39;139540.88;;;5.09;65.64
788;BME280;16074;42.708;23.312;2023-02-02T01:29:08;139542.09;;;5.10;66.27
788;BME280;16074;42.708;23.312;2023-02-02T01:31:36;139543.25;;;5.10;66.37
788;BME280;16074;42.708;23.312;2023-02-02T01:34:04;139546.84;;;5.12;66.41
788;BME280;16074;42.708;23.312;2023-02-02T01:36:32;139477.41;;;4.83;67.29
788;BME280;16074;42.708;23.312;2023-02-02T01:39:00;139508.53;;;4.96;67.36
788;BME280;16074;42.708;23.312;2023-02-02T01:41:30;139470.22;;;4.80;68.48
788;BME280;16074;42.708;23.312;2023-02-02T01:44:00;139455.84;;;4.74;68.96
788;BME280;16074;42.708;23.312;2023-02-02T01:46:30;139388.81;;;4.46;69.87
788;BME280;16074;42.708;23.312;2023-02-02T01:49:02;139368.44;;;4.38;70.94
788;BME280;16074;42.708;23.312;2023-02-02T01:51:36;139348.13;;;4.29;71.26
788;BME280;16074;42.708;23.312;2023-02-02T01:54:09;139348.13;;;4.29;72.00
788;BME280;16074;42.708;23.312;2023-02-02T01:56:43;139340.94;;;4.26;72.56
788;BME280;16074;42.708;23.312;2023-02-02T01:59:13;139302.63;;;4.10;74.10
788;BME280;16074;42.708;23.312;2023-02-02T02:01:44;139287.09;;;4.04;75.00
788;BME280;16074;42.708;23.312;2023-02-02T02:04:14;139281.09;;;4.01;75.55
788;BME280;16074;42.708;23.312;2023-02-02T02:06:44;139210.50;;;3.72;78.36
788;BME280;16074;42.708;23.312;2023-02-02T02:09:14;139181.84;;;3.60;80.33
788;BME280;16074;42.708;23.312;2023-02-02T02:11:44;139198.59;;;3.67;81.23
788;BME280;16074;42.708;23.312;2023-02-02T02:14:14;139169.88;;;3.55;82.02
788;BME280;16074;42.708;23.312;2023-02-02T02:17:13;139144.72;;;3.45;82.65
788;BME280;16074;42.708;23.312;2023-02-02T02:20:07;139145.94;;;3.45;83.55
788;BME280;16074;42.708;23.312;2023-02-02T02:23:18;139089.75;;;3.22;84.82
788;BME280;16074;42.708;23.312;2023-02-02T02:26:29;139098.13;;;3.25;85.17
788;BME280;16074;42.708;23.312;2023-02-02T02:29:40;139088.53;;;3.21;85.95
788;BME280;16074;42.708;23.312;2023-02-02T02:32:23;139081.38;;;3.18;86.42
788;BME280;16074;42.708;23.312;2023-02-02T02:35:01;139058.69;;;3.09;86.93
788;BME280;16074;42.708;23.312;2023-02-02T02:37:38;139075.41;;;3.16;86.17
788;BME280;16074;42.708;23.312;2023-02-02T02:40:14;139078.97;;;3.17;86.48
788;BME280;16074;42.708;23.312;2023-02-02T02:42:49;139047.94;;;3.04;86.54
788;BME280;16074;42.708;23.312;2023-02-02T02:45:20;139041.94;;;3.02;86.25
788;BME280;16074;42.708;23.312;2023-02-02T02:47:52;139070.63;;;3.14;85.71
788;BME280;16074;42.708;23.312;2023-02-02T02:50:22;139043.16;;;3.02;86.26
788;BME280;16074;42.708;23.312;2023-02-02T02:52:58;139035.97;;;2.99;86.88
788;BME280;16074;42.708;23.312;2023-02-02T02:55:36;139019.25;;;2.92;87.11
788;BME280;16074;42.708;23.312;2023-02-02T02:58:09;139003.69;;;2.86;87.43
788;BME280;16074;42.708;23.312;2023-02-02T03:01:00;138998.91;;;2.84;87.11
788;BME280;16074;42.708;23.312;2023-02-02T03:03:46;139012.06;;;2.89;86.82
788;BME280;16074;42.708;23.312;2023-02-02T03:06:22;139000.13;;;2.84;86.83
788;BME280;16074;42.708;23.312;2023-02-02T03:08:59;139021.63;;;2.93;86.63
788;BME280;16074;42.708;23.312;2023-02-02T03:11:30;139007.28;;;2.87;86.39
788;BME280;16074;42.708;23.312;2023-02-02T03:14:00;139010.84;;;2.89;86.49
788;BME280;16074;42.708;23.312;2023-02-02T03:16:28;139044.31;;;3.03;86.48
788;BME280;16074;42.708;23.312;2023-02-02T03:18:58;139039.53;;;3.01;85.89
788;BME280;16074;42.708;23.312;2023-02-02T03:21:26;139037.16;;;3.00;85.77
788;BME280;16074;42.708;23.312;2023-02-02T03:23:54;139057.50;;;3.08;85.81
788;BME280;16074;42.708;23.312;2023-02-02T03:26:23;139038.38;;;3.00;85.70
788;BME280;16074;42.708;23.312;2023-02-02T03:28:53;139032.38;;;2.98;86.30
788;BME280;16074;42.708;23.312;2023-02-02T03:31:23;139039.53;;;3.01;85.71
788;BME280;16074;42.708;23.312;2023-02-02T03:33:53;139034.75;;;2.99;85.87
788;BME280;16074;42.708;23.312;2023-02-02T03:36:23;139038.38;;;3.00;86.24
788;BME280;16074;42.708;23.312;2023-02-02T03:38:51;139024.03;;;2.94;86.22
788;BME280;16074;42.708;23.312;2023-02-02T03:41:19;139033.59;;;2.98;86.52
788;BME280;16074;42.708;23.312;2023-02-02T03:43:48;139019.25;;;2.92;86.23
788;BME280;16074;42.708;23.312;2023-02-02T03:46:16;139009.69;;;2.88;86.34
788;BME280;16074;42.708;23.312;2023-02-02T03:48:44;138985.78;;;2.78;87.13
788;BME280;16074;42.708;23.312;2023-02-02T03:51:13;138996.56;;;2.83;87.22
788;BME280;16074;42.708;23.312;2023-02-02T03:53:43;138988.16;;;2.79;87.34
788;BME280;16074;42.708;23.312;2023-02-02T03:56:13;138981.00;;;2.76;87.74
788;BME280;16074;42.708;23.312;2023-02-02T03:58:42;138960.69;;;2.68;87.49
788;BME280;16074;42.708;23.312;2023-02-02T04:01:12;138967.88;;;2.71;87.88
788;BME280;16074;42.708;23.312;2023-02-02T04:03:41;138964.25;;;2.69;87.78
788;BME280;16074;42.708;23.312;2023-02-02T04:06:09;138957.09;;;2.66;88.85
788;BME280;16074;42.708;23.312;2023-02-02T04:08:37;138920.06;;;2.51;88.93
788;BME280;16074;42.708;23.312;2023-02-02T04:11:09;138928.44;;;2.54;88.69
788;BME280;16074;42.708;23.312;2023-02-02T04:13:38;138943.97;;;2.61;88.63
788;BME280;16074;42.708;23.312;2023-02-02T04:16:09;138917.66;;;2.50;89.28
788;BME280;16074;42.708;23.312;2023-02-02T04:18:38;138893.78;;;2.40;89.18
788;BME280;16074;42.708;23.312;2023-02-02T04:21:07;138883.03;;;2.35;89.47
788;BME280;16074;42.708;23.312;2023-02-02T04:23:35;138886.59;;;2.37;89.89
788;BME280;16074;42.708;23.312;2023-02-02T04:26:04;138861.53;;;2.27;90.36
788;BME280;16074;42.708;23.312;2023-02-02T04:28:34;138855.59;;;2.24;90.71
788;BME280;16074;42.708;23.312;2023-02-02T04:31:03;138837.66;;;2.17;90.95
788;BME280;16074;42.708;23.312;2023-02-02T04:33:33;138812.59;;;2.06;91.58
788;BME280;16074;42.708;23.312;2023-02-02T04:36:01;138842.41;;;2.19;91.87
788;BME280;16074;42.708;23.312;2023-02-02T04:38:29;138846.03;;;2.20;91.77
788;BME280;16074;42.708;23.312;2023-02-02T04:40:58;138825.69;;;2.12;92.11
788;BME280;16074;42.708;23.312;2023-02-02T04:43:26;138830.47;;;2.14;92.09
788;BME280;16074;42.708;23.312;2023-02-02T04:45:56;138840.03;;;2.18;92.53
788;BME280;16074;42.708;23.312;2023-02-02T04:48:24;138836.47;;;2.16;92.69
788;BME280;16074;42.708;23.312;2023-02-02T04:50:57;138822.13;;;2.10;92.96
788;BME280;16074;42.708;23.312;2023-02-02T04:53:25;138812.59;;;2.06;93.20
788;BME280;16074;42.708;23.312;2023-02-02T04:55:54;138804.19;;;2.03;93.78
788;BME280;16074;42.708;23.312;2023-02-02T04:58:22;138768.41;;;1.88;94.08
788;BME280;16074;42.708;23.312;2023-02-02T05:00:50;138780.34;;;1.93;94.05
788;BME280;16074;42.708;23.312;2023-02-02T05:03:20;138774.38;;;1.90;93.98
788;BME280;16074;42.708;23.312;2023-02-02T05:05:48;138774.38;;;1.90;94.40
788;BME280;16074;42.708;23.312;2023-02-02T05:08:16;138740.94;;;1.76;94.98
788;BME280;16074;42.708;23.312;2023-02-02T05:10:44;138737.38;;;1.75;95.46
788;BME280;16074;42.708;23.312;2023-02-02T05:13:13;138731.38;;;1.72;95.43
788;BME280;16074;42.708;23.312;2023-02-02T05:15:41;138726.59;;;1.70;95.10
788;BME280;16074;42.708;23.312;2023-02-02T05:18:09;138709.94;;;1.63;95.58
788;BME280;16074;42.708;23.312;2023-02-02T05:20:39;138684.84;;;1.53;96.02
788;BME280;16074;42.708;23.312;2023-02-02T05:23:07;138678.88;;;1.50;95.97
788;BME280;16074;42.708;23.312;2023-02-02T05:25:35;138674.13;;;1.48;96.33
788;BME280;16074;42.708;23.312;2023-02-02T05:28:04;138695.59;;;1.57;95.93
788;BME280;16074;42.708;23.312;2023-02-02T05:30:32;138675.28;;;1.49;95.81
788;BME280;16074;42.708;23.312;2023-02-02T05:33:00;138688.44;;;1.54;95.89
788;BME280;16074;42.708;23.312;2023-02-02T05:35:28;138645.47;;;1.36;95.92
788;BME280;16074;42.708;23.312;2023-02-02T05:37:58;138668.13;;;1.46;95.80
788;BME280;16074;42.708;23.312;2023-02-02T05:40:26;138677.66;;;1.50;95.70
788;BME280;16074;42.708;23.312;2023-02-02T05:42:55;138666.94;;;1.45;95.94
788;BME280;16074;42.708;23.312;2023-02-02T05:45:23;138664.56;;;1.44;96.25
788;BME280;16074;42.708;23.312;2023-02-02T05:47:52;138671.72;;;1.47;96.20
788;BME280;16074;42.708;23.312;2023-02-02T05:50:21;138640.69;;;1.34;95.93
788;BME280;16074;42.708;23.312;2023-02-02T05:53:02;138649.06;;;1.38;96.62
788;BME280;16074;42.708;23.312;2023-02-02T05:55:30;138657.41;;;1.41;96.17
788;BME280;16074;42.708;23.312;2023-02-02T05:57:59;138653.84;;;1.40;95.98
788;BME280;16074;42.708;23.312;2023-02-02T06:00:27;138683.66;;;1.52;96.30
788;BME280;16074;42.708;23.312;2023-02-02T06:02:55;138670.50;;;1.47;95.44
788;BME280;16074;42.708;23.312;2023-02-02T06:05:23;138671.72;;;1.47;95.77
788;BME280;16074;42.708;23.312;2023-02-02T06:07:52;138688.44;;;1.54;96.16
788;BME280;16074;42.708;23.312;2023-02-02T06:10:22;138683.66;;;1.52;95.91
788;BME280;16074;42.708;23.312;2023-02-02T06:12:50;138701.53;;;1.60;96.33
788;BME280;16074;42.708;23.312;2023-02-02T06:15:18;138707.53;;;1.62;95.79
788;BME280;16074;42.708;23.312;2023-02-02T06:17:46;138732.59;;;1.73;95.00
788;BME280;16074;42.708;23.312;2023-02-02T06:20:15;138725.44;;;1.70;94.68
788;BME280;16074;42.708;23.312;2023-02-02T06:22:43;138731.38;;;1.72;93.93
788;BME280;16074;42.708;23.312;2023-02-02T06:25:11;138732.59;;;1.73;94.21
788;BME280;16074;42.708;23.312;2023-02-02T06:27:41;138755.25;;;1.82;94.26
788;BME280;16074;42.708;23.312;2023-02-02T06:30:12;138769.59;;;1.88;93.72
788;BME280;16074;42.708;23.312;2023-02-02T06:32:40;138779.13;;;1.92;93.36
788;BME280;16074;42.708;23.312;2023-02-02T06:35:09;138788.69;;;1.96;93.05
788;BME280;16074;42.708;23.312;2023-02-02T06:37:37;138804.19;;;2.03;93.19
788;BME280;16074;42.708;23.312;2023-02-02T06:40:07;138797.03;;;2.00;92.16
788;BME280;16074;42.708;23.312;2023-02-02T06:42:36;138794.63;;;1.99;91.93
788;BME280;16074;42.708;23.312;2023-02-02T06:45:06;138836.47;;;2.16;90.80
788;BME280;16074;42.708;23.312;2023-02-02T06:47:35;138835.25;;;2.16;90.00
788;BME280;16074;42.708;23.312;2023-02-02T06:50:04;138828.09;;;2.13;89.04
788;BME280;16074;42.708;23.312;2023-02-02T06:52:32;138874.66;;;2.32;87.74
788;BME280;16074;42.708;23.312;2023-02-02T06:55:00;138903.34;;;2.44;87.08
788;BME280;16074;42.708;23.312;2023-02-02T06:57:29;138911.72;;;2.47;86.96
788;BME280;16074;42.708;23.312;2023-02-02T06:59:57;138929.63;;;2.55;87.29
788;BME280;16074;42.708;23.312;2023-02-02T07:02:26;138955.91;;;2.66;87.36
788;BME280;16074;42.708;23.312;2023-02-02T07:04:55;138961.88;;;2.68;87.73
788;BME280;16074;42.708;23.312;2023-02-02T07:07:23;138960.69;;;2.68;87.25
788;BME280;16074;42.708;23.312;2023-02-02T07:09:51;138994.16;;;2.82;87.07
788;BME280;16074;42.708;23.312;2023-02-02T07:12:24;139003.69;;;2.86;86.92
788;BME280;16074;42.708;23.312;2023-02-02T07:14:53;139044.31;;;3.03;86.47
788;BME280;16074;42.708;23.312;2023-02-02T07:17:21;139052.72;;;3.06;86.41
788;BME280;16074;42.708;23.312;2023-02-02T07:19:51;139057.50;;;3.08;85.79
788;BME280;16074;42.708;23.312;2023-02-02T07:22:19;139082.59;;;3.19;84.93
788;BME280;16074;42.708;23.312;2023-02-02T07:24:47;139088.53;;;3.21;85.16
788;BME280;16074;42.708;23.312;2023-02-02T07:27:15;139074.19;;;3.15;85.34
788;BME280;16074;42.708;23.312;2023-02-02T07:29:44;139107.69;;;3.29;85.06
788;BME280;16074;42.708;23.312;2023-02-02T07:32:12;139101.72;;;3.27;84.18
788;BME280;16074;42.708;23.312;2023-02-02T07:34:40;139107.69;;;3.29;83.94
788;BME280;16074;42.708;23.312;2023-02-02T07:37:11;139119.63;;;3.34;84.80
788;BME280;16074;42.708;23.312;2023-02-02T07:39:39;139136.38;;;3.41;84.85
788;BME280;16074;42.708;23.312;2023-02-02T07:42:10;139159.09;;;3.50;84.24
788;BME280;16074;42.708;23.312;2023-02-02T07:44:39;139200.97;;;3.68;83.34
788;BME280;16074;42.708;23.312;2023-02-02T07:47:08;139260.75;;;3.93;81.96
788;BME280;16074;42.708;23.312;2023-02-02T07:49:36;139302.63;;;4.10;80.81
788;BME280;16074;42.708;23.312;2023-02-02T07:52:04;139369.66;;;4.38;81.20
788;BME280;16074;42.708;23.312;2023-02-02T07:54:34;139469.03;;;4.79;80.74
788;BME280;16074;42.708;23.312;2023-02-02T07:57:02;139531.28;;;5.05;78.26
788;BME280;16074;42.708;23.312;2023-02-02T07:59:30;139646.28;;;5.53;78.65
788;BME280;16074;42.708;23.312;2023-02-02T08:01:59;139761.38;;;6.01;74.97
788;BME280;16074;42.708;23.312;2023-02-02T08:04:27;139863.31;;;6.43;70.23
788;BME280;16074;42.708;23.312;2023-02-02T08:06:56;139986.88;;;6.95;66.38
788;BME280;16074;42.708;23.312;2023-02-02T08:09:24;140092.47;;;7.38;64.30
788;BME280;16074;42.708;23.312;2023-02-02T08:11:54;140255.78;;;8.06;62.41
788;BME280;16074;42.708;23.312;2023-02-02T08:14:27;140396.41;;;8.64;60.68
788;BME280;16074;42.708;23.312;2023-02-02T08:16:56;140547.88;;;9.27;57.71
788;BME280;16074;42.708;23.312;2023-02-02T08:19:24;140667.00;;;9.76;56.36
788;BME280;16074;42.708;23.312;2023-02-02T08:21:52;140706.69;;;9.93;53.17
788;BME280;16074;42.708;23.312;2023-02-02T08:24:20;140663.34;;;9.75;51.97
788;BME280;16074;42.708;23.312;2023-02-02T08:26:49;140663.34;;;9.75;52.49
788;BME280;16074;42.708;23.312;2023-02-02T08:29:18;140739.22;;;10.06;51.32
788;BME280;16074;42.708;23.312;2023-02-02T08:31:47;140768.09;;;10.18;51.37
788;BME280;16074;42.708;23.312;2023-02-02T08:34:15;140857.19;;;10.55;50.61
788;BME280;16074;42.708;23.312;2023-02-02T08:36:43;140894.53;;;10.70;50.91
788;BME280;16074;42.708;23.312;2023-02-02T08:39:11;141007.75;;;11.17;49.55
788;BME280;16074;42.708;23.312;2023-02-02T08:41:40;141076.44;;;11.46;48.98
788;BME280;16074;42.708;23.312;2023-02-02T08:44:11;141177.72;;;11.88;47.51
788;BME280;16074;42.708;23.312;2023-02-02T08:46:41;141268.16;;;12.25;46.89
788;BME280;16074;42.708;23.312;2023-02-02T08:49:11;141327.25;;;12.49;45.23
788;BME280;16074;42.708;23.312;2023-02-02T08:51:39;141229.56;;;12.09;45.85
788;BME280;16074;42.708;23.312;2023-02-02T08:54:08;141263.34;;;12.23;45.97
788;BME280;16074;42.708;23.312;2023-02-02T08:56:37;141271.75;;;12.26;45.12
788;BME280;16074;42.708;23.312;2023-02-02T08:59:05;141221.16;;;12.05;44.53
788;BME280;16074;42.708;23.312;2023-02-02T09:01:34;140970.44;;;11.02;43.94
788;BME280;16074;42.708;23.312;2023-02-02T09:04:04;141107.84;;;11.59;43.79
788;BME280;16074;42.708;23.312;2023-02-02T09:06:34;141199.44;;;11.96;43.37
788;BME280;16074;42.708;23.312;2023-02-02T09:09:04;141332.09;;;12.51;42.88
788;BME280;16074;42.708;23.312;2023-02-02T09:11:32;141370.69;;;12.67;42.09
788;BME280;16074;42.708;23.312;2023-02-02T09:14:01;141248.88;;;12.17;41.68
788;BME280;16074;42.708;23.312;2023-02-02T09:16:33;141016.19;;;11.21;43.57
788;BME280;16074;42.708;23.312;2023-02-02T09:19:03;141183.72;;;11.90;43.21
788;BME280;16074;42.708;23.312;2023-02-02T09:21:32;141089.69;;;11.51;43.33
788;BME280;16074;42.708;23.312;2023-02-02T09:24:06;140933.06;;;10.86;45.10
788;BME280;16074;42.708;23.312;2023-02-02T09:26:34;141052.34;;;11.36;44.23
788;BME280;16074;42.708;23.312;2023-02-02T09:29:09;140990.88;;;11.10;43.89
788;BME280;16074;42.708;23.312;2023-02-02T09:31:38;141152.44;;;11.77;43.84
788;BME280;16074;42.708;23.312;2023-02-02T09:34:09;141239.22;;;12.13;44.03
788;BME280;16074;42.708;23.312;2023-02-02T09:36:38;141309.19;;;12.42;43.63
788;BME280;16074;42.708;23.312;2023-02-02T09:39:08;141405.69;;;12.82;42.32
788;BME280;16074;42.708;23.312;2023-02-02T09:41:58;141456.44;;;13.03;41.45
788;BME280;16074;42.708;23.312;2023-02-02T09:47:24;141507.09;;;13.23;40.97
788;BME280;16074;42.708;23.312;2023-02-02T09:50:03;141470.88;;;13.08;40.55
788;BME280;16074;42.708;23.312;2023-02-02T09:52:36;141527.59;;;13.32;40.83
788;BME280;16074;42.708;23.312;2023-02-02T09:55:12;141544.50;;;13.39;40.65
788;BME280;16074;42.708;23.312;2023-02-02T09:57:44;141550.56;;;13.41;39.76
788;BME280;16074;42.708;23.312;2023-02-02T10:00:26;141549.34;;;13.41;40.37
788;BME280;16074;42.708;23.312;2023-02-02T10:02:58;141495.00;;;13.18;40.67
788;BME280;16074;42.708;23.312;2023-02-02T10:05:42;141075.22;;;11.45;42.00
788;BME280;16074;42.708;23.312;2023-02-02T10:08:17;141159.66;;;11.80;42.49
788;BME280;16074;42.708;23.312;2023-02-02T10:11:09;141197.03;;;11.95;42.16
788;BME280;16074;42.708;23.312;2023-02-02T10:13:44;141018.59;;;11.22;43.66
788;BME280;16074;42.708;23.312;2023-02-02T10:16:16;140799.41;;;10.31;44.25
788;BME280;16074;42.708;23.312;2023-02-02T10:18:48;140735.63;;;10.05;45.49
788;BME280;16074;42.708;23.312;2023-02-02T10:21:28;140711.50;;;9.95;45.89
788;BME280;16074;42.708;23.312;2023-02-02T10:24:01;140624.91;;;9.59;46.64
788;BME280;16074;42.708;23.312;2023-02-02T10:26:36;140570.72;;;9.37;47.17
788;BME280;16074;42.708;23.312;2023-02-02T10:29:11;140575.53;;;9.39;47.94
788;BME280;16074;42.708;23.312;2023-02-02T10:31:48;140653.72;;;9.71;47.49
788;BME280;16074;42.708;23.312;2023-02-02T10:34:22;140641.69;;;9.66;47.01
788;BME280;16074;42.708;23.312;2023-02-02T10:37:01;140694.66;;;9.88;45.84
788;BME280;16074;42.708;23.312;2023-02-02T10:39:40;140740.44;;;10.07;46.14
788;BME280;16074;42.708;23.312;2023-02-02T10:42:18;140715.09;;;9.96;45.18
788;BME280;16074;42.708;23.312;2023-02-02T10:44:53;140703.09;;;9.91;45.74
788;BME280;16074;42.708;23.312;2023-02-02T10:47:25;140730.81;;;10.03;45.50
788;BME280;16074;42.708;23.312;2023-02-02T10:50:05;140735.63;;;10.05;45.92
788;BME280;16074;42.708;23.312;2023-02-02T10:52:37;140721.13;;;9.99;45.22
788;BME280;16074;42.708;23.312;2023-02-02T10:55:13;140730.81;;;10.03;45.63
788;BME280;16074;42.708;23.312;2023-02-02T10:57:50;140735.63;;;10.05;46.15
788;BME280;16074;42.708;23.312;2023-02-02T11:00:22;140793.38;;;10.29;45.44
788;BME280;16074;42.708;23.312;2023-02-02T11:02:52;140813.88;;;10.37;44.85
788;BME280;16074;42.708;23.312;2023-02-02T11:05:23;140815.06;;;10.38;45.22
788;BME280;16074;42.708;23.312;2023-02-02T11:08:17;140734.41;;;10.04;45.49
788;BME280;16074;42.708;23.312;2023-02-02T11:10:47;140768.09;;;10.18;45.60
788;BME280;16074;42.708;23.312;2023-02-02T11:13:25;140813.88;;;10.37;45.61
788;BME280;16074;42.708;23.312;2023-02-02T11:16:20;140874.03;;;10.62;45.30
788;BME280;16074;42.708;23.312;2023-02-02T11:18:49;140840.31;;;10.48;44.28
788;BME280;16074;42.708;23.312;2023-02-02T11:21:19;140911.38;;;10.77;44.09
788;BME280;16074;42.708;23.312;2023-02-02T11:23:55;140971.59;;;11.02;43.82
788;BME280;16074;42.708;23.312;2023-02-02T11:26:25;140925.81;;;10.83;43.72
788;BME280;16074;42.708;23.312;2023-02-02T11:28:55;140922.22;;;10.82;43.73
788;BME280;16074;42.708;23.312;2023-02-02T11:31:34;140904.19;;;10.74;43.83
788;BME280;16074;42.708;23.312;2023-02-02T11:34:24;140910.19;;;10.77;44.05
788;BME280;16074;42.708;23.312;2023-02-02T11:37:11;140912.59;;;10.78;43.85
788;BME280;16074;42.708;23.312;2023-02-02T11:39:41;140968.00;;;11.01;43.20
788;BME280;16074;42.708;23.312;2023-02-02T11:42:13;140986.06;;;11.08;43.24
788;BME280;16074;42.708;23.312;2023-02-02T11:44:45;141088.50;;;11.51;43.28
788;BME280;16074;42.708;23.312;2023-02-02T11:47:20;141092.09;;;11.52;42.84
788;BME280;16074;42.708;23.312;2023-02-02T11:49:52;141043.91;;;11.32;43.24
788;BME280;16074;42.708;23.312;2023-02-02T11:52:27;141130.72;;;11.68;42.84
788;BME280;16074;42.708;23.312;2023-02-02T11:55:02;141177.72;;;11.88;42.60
788;BME280;16074;42.708;23.312;2023-02-02T11:57:36;141162.06;;;11.81;42.71
788;BME280;16074;42.708;23.312;2023-02-02T12:00:15;141246.44;;;12.16;42.40
788;BME280;16074;42.708;23.312;2023-02-02T12:02:45;141233.22;;;12.10;41.97
788;BME280;16074;42.708;23.312;2023-02-02T12:05:32;141086.09;;;11.50;41.85
788;BME280;16074;42.708;23.312;2023-02-02T12:08:01;141041.50;;;11.31;42.27
788;BME280;16074;42.708;23.312;2023-02-02T12:10:35;141122.25;;;11.65;42.84
788;BME280;16074;42.708;23.312;2023-02-02T12:13:09;141246.44;;;12.16;41.52
788;BME280;16074;42.708;23.312;2023-02-02T12:15:49;141180.13;;;11.88;39.80
788;BME280;16074;42.708;23.312;2023-02-02T12:18:33;140972.84;;;11.03;40.71
788;BME280;16074;42.708;23.312;2023-02-02T12:21:10;140906.59;;;10.75;41.89
788;BME280;16074;42.708;23.312;2023-02-02T12:23:52;140887.31;;;10.68;42.06
788;BME280;16074;42.708;23.312;2023-02-02T12:26:26;140880.09;;;10.65;41.94
788;BME280;16074;42.708;23.312;2023-02-02T12:29:20;140888.50;;;10.68;42.42
788;BME280;16074;42.708;23.312;2023-02-02T12:32:19;140747.66;;;10.10;41.94
788;BME280;16074;42.708;23.312;2023-02-02T12:34:59;140723.59;;;10.00;42.98
788;BME280;16074;42.708;23.312;2023-02-02T12:37:43;140746.44;;;10.09;42.87
788;BME280;16074;42.708;23.312;2023-02-02T12:40:27;140766.94;;;10.18;43.29
788;BME280;16074;42.708;23.312;2023-02-02T12:43:10;140719.91;;;9.98;42.64
788;BME280;16074;42.708;23.312;2023-02-02T12:48:48;140736.81;;;10.05;43.57
788;BME280;16074;42.708;23.312;2023-02-02T12:51:31;140719.91;;;9.98;43.26
788;BME280;16074;42.708;23.312;2023-02-02T12:57:23;140750.06;;;10.11;43.40
788;BME280;16074;42.708;23.312;2023-02-02T13:00:15;140733.22;;;10.04;43.54
788;BME280;16074;42.708;23.312;2023-02-02T13:02:59;140757.31;;;10.14;43.47
788;BME280;16074;42.708;23.312;2023-02-02T13:05:51;140756.06;;;10.13;43.44
788;BME280;16074;42.708;23.312;2023-02-02T13:08:27;140738.03;;;10.06;43.17
788;BME280;16074;42.708;23.312;2023-02-02T13:11:04;140798.19;;;10.31;43.65
788;BME280;16074;42.708;23.312;2023-02-02T13:13:55;140862.00;;;10.57;42.35
788;BME280;16074;42.708;23.312;2023-02-02T13:16:29;140836.72;;;10.47;42.44
788;BME280;16074;42.708;23.312;2023-02-02T13:19:01;140835.56;;;10.46;42.53
788;BME280;16074;42.708;23.312;2023-02-02T13:21:31;140821.09;;;10.40;42.44
788;BME280;16074;42.708;23.312;2023-02-02T13:24:03;140818.69;;;10.39;42.72
788;BME280;16074;42.708;23.312;2023-02-02T13:26:35;140803.00;;;10.33;42.77
788;BME280;16074;42.708;23.312;2023-02-02T13:29:06;140786.16;;;10.26;44.00
788;BME280;16074;42.708;23.312;2023-02-02T13:31:44;140824.69;;;10.42;42.25
788;BME280;16074;42.708;23.312;2023-02-02T13:34:19;140921.00;;;10.81;40.94
788;BME280;16074;42.708;23.312;2023-02-02T13:36:51;140999.31;;;11.14;40.28
788;BME280;16074;42.708;23.312;2023-02-02T13:39:27;141092.09;;;11.52;39.61
788;BME280;16074;42.708;23.312;2023-02-02T13:41:59;141158.44;;;11.80;39.58
788;BME280;16074;42.708;23.312;2023-02-02T13:44:31;141245.28;;;12.15;39.64